Estación Meteorológica Peña el Pijo (Robertgarden) [ 09/25/18 07:44:05 CEST ]

Fecha Hora Presion(HPa) Temp (°C) Humedad % Rocio (°C) Viento ( m/s) Direccion Lluvia 1Hora(mm) Lluvia 24H(mm) LLuvia Total(mm)
2018-May-25 01:01:44 1005.800 12.4 72 7.5       1.03 219.11
2018-May-25 02:01:44 1005.200 11.3 75 7.0       1.03 219.11
2018-May-25 03:01:55 1004.500 10.4 79 6.9       1.03 219.11
2018-May-25 04:02:01 1004.300 9.6 81 6.5       1.03 219.11
2018-May-25 05:05:09 1004.000 9.9 82 6.9       1.03 219.11
2018-May-25 06:01:37 1004.100 10.8 83 8.0       1.03 219.11
2018-May-25 07:01:48 1004.200 11.2 83 8.4       0.51 219.11
2018-May-25 08:01:56 1004.100 11.6 83 8.8         219.11
2018-May-25 09:01:59 1004.700 14.9 79 11.3         219.11
2018-May-25 10:01:38 1004.600 14.9 76 10.7         219.11
2018-May-25 11:01:47 1004.400 20.6 61 12.8         219.11
2018-May-25 12:01:51 1004.300 21.3 55 11.9         219.11
2018-May-25 13:01:53 1004.200 19.8 57 11.0         219.11
2018-May-25 14:01:57 1004.200 18.7 62 11.3         219.11
2018-May-25 15:01:52 1004.100 21.6 54 11.9         219.11
2018-May-25 16:01:53 1003.800 22.2 52 11.8         219.11
2018-May-25 17:01:29 1003.400 25.1 43 11.6         219.11
2018-May-25 18:01:46 1003.300 24.7 37 9.0 1.9 WNW     219.11
2018-May-25 19:01:29 1003.000 23.1 39 8.4         219.11
2018-May-25 20:01:46 1003.400 21.7 47 9.8         219.11
2018-May-25 21:01:32 1004.300 18.2 55 8.9         219.11
2018-May-25 22:01:39 1005.000 16.6 60 8.8         219.11
2018-May-25 23:01:43 1005.900 14.8 63 7.8         219.11

Temperatura Máxima:25°    Temperatura Mínima:
Presión Máxima:1005.900 Hpa    Presión Mínima:1003.000 Hpa


Volver